RYR2CK EIDW-EGKK
Flight info
| Callsign | RYR2CK |
|---|---|
| Flight time | 0h 53m |
| Altitude | 33000 |
| Route | ENDEQ3J ENDEQ Q36 EPOXI L15 KEPAD L151 DISIT |
| Aircraft | B38M/M-SDE1FGHILORVWXY/HB1 |
Departure
| Time | 2026-05-07 17:59 |
|---|---|
| Airport | Dublin Airport (EIDW) |
Arrival
| Time | 2026-05-07 18:52 |
|---|---|
| Airport | London Gatwick Airport (EGKK) |
| Time | Latitude | Longitude | Altitude | Speed | Heading |
|---|---|---|---|---|---|
| 2026-05-07 17:36 | 53.43010 | -6.25009 | 218 ft | 0 kts | 5° |
| 2026-05-07 17:50 | 53.42988 | -6.25009 | 216 ft | 4 kts | 349° |
| 2026-05-07 17:50 | 53.42965 | -6.24992 | 213 ft | 4 kts | 316° |
| 2026-05-07 17:51 | 53.42951 | -6.24956 | 215 ft | 4 kts | 282° |
| 2026-05-07 17:51 | 53.42950 | -6.24941 | 213 ft | 0 kts | 275° |
| 2026-05-07 17:53 | 53.42950 | -6.24943 | 213 ft | 1 kts | 275° |
| 2026-05-07 17:53 | 53.42952 | -6.24983 | 213 ft | 7 kts | 275° |
| 2026-05-07 17:53 | 53.42956 | -6.25071 | 216 ft | 8 kts | 275° |
| 2026-05-07 17:54 | 53.42960 | -6.25159 | 213 ft | 8 kts | 274° |
| 2026-05-07 17:54 | 53.42973 | -6.25272 | 215 ft | 11 kts | 289° |
| 2026-05-07 17:54 | 53.43011 | -6.25394 | 216 ft | 13 kts | 319° |
| 2026-05-07 17:54 | 53.43095 | -6.25462 | 221 ft | 14 kts | 337° |
| 2026-05-07 17:55 | 53.43193 | -6.25530 | 216 ft | 16 kts | 337° |
| 2026-05-07 17:55 | 53.43299 | -6.25611 | 219 ft | 17 kts | 336° |
| 2026-05-07 17:55 | 53.43388 | -6.25650 | 215 ft | 14 kts | 22° |
| 2026-05-07 17:55 | 53.43404 | -6.25501 | 213 ft | 15 kts | 95° |
| 2026-05-07 17:56 | 53.43394 | -6.25310 | 213 ft | 18 kts | 95° |
| 2026-05-07 17:56 | 53.43381 | -6.25091 | 215 ft | 20 kts | 96° |
| 2026-05-07 17:56 | 53.43368 | -6.24850 | 213 ft | 22 kts | 94° |
| 2026-05-07 17:56 | 53.43356 | -6.24649 | 213 ft | 10 kts | 95° |
| 2026-05-07 17:57 | 53.43378 | -6.24558 | 214 ft | 6 kts | 20° |
| 2026-05-07 17:57 | 53.43404 | -6.24554 | 214 ft | 6 kts | 5° |
| 2026-05-07 17:57 | 53.43463 | -6.24545 | 219 ft | 7 kts | 5° |
| 2026-05-07 17:57 | 53.43511 | -6.24555 | 225 ft | 7 kts | 320° |
| 2026-05-07 17:58 | 53.43528 | -6.24662 | 222 ft | 18 kts | 274° |
| 2026-05-07 17:58 | 53.43561 | -6.25273 | 220 ft | 91 kts | 275° |
| 2026-05-07 17:58 | 53.43641 | -6.26708 | 213 ft | 157 kts | 275° |
| 2026-05-07 17:58 | 53.43762 | -6.28767 | 492 ft | 185 kts | 274° |
| 2026-05-07 17:59 | 53.43902 | -6.30903 | 1387 ft | 188 kts | 278° |
| 2026-05-07 17:59 | 53.44543 | -6.32882 | 2092 ft | 212 kts | 312° |
| 2026-05-07 17:59 | 53.45831 | -6.34310 | 2824 ft | 225 kts | 329° |
| 2026-05-07 17:59 | 53.47351 | -6.34948 | 3835 ft | 231 kts | 355° |
| 2026-05-07 18:00 | 53.48959 | -6.34942 | 4880 ft | 232 kts | 357° |
| 2026-05-07 18:00 | 53.50597 | -6.34497 | 5643 ft | 251 kts | 23° |
| 2026-05-07 18:00 | 53.51991 | -6.32599 | 6302 ft | 270 kts | 57° |
| 2026-05-07 18:00 | 53.52628 | -6.29592 | 6957 ft | 283 kts | 89° |
| 2026-05-07 18:01 | 53.52548 | -6.26278 | 7900 ft | 284 kts | 94° |
| 2026-05-07 18:01 | 53.52487 | -6.22908 | 8713 ft | 294 kts | 93° |
| 2026-05-07 18:01 | 53.52432 | -6.19457 | 9567 ft | 295 kts | 92° |
| 2026-05-07 18:01 | 53.52376 | -6.15987 | 10397 ft | 303 kts | 92° |
| 2026-05-07 18:02 | 53.52246 | -6.08486 | 11266 ft | 342 kts | 94° |
| 2026-05-07 18:02 | 53.51837 | -6.04497 | 11844 ft | 351 kts | 106° |
| 2026-05-07 18:02 | 53.51254 | -6.00532 | 12690 ft | 353 kts | 106° |
| 2026-05-07 18:03 | 53.50666 | -5.96483 | 13461 ft | 360 kts | 106° |
| 2026-05-07 18:03 | 53.50072 | -5.92372 | 14172 ft | 364 kts | 106° |
| 2026-05-07 18:03 | 53.49472 | -5.88219 | 14862 ft | 368 kts | 106° |
| 2026-05-07 18:03 | 53.48884 | -5.84029 | 15554 ft | 372 kts | 104° |
| 2026-05-07 18:04 | 53.48356 | -5.79758 | 16205 ft | 376 kts | 104° |
| 2026-05-07 18:04 | 53.47816 | -5.75447 | 16868 ft | 380 kts | 104° |
| 2026-05-07 18:04 | 53.47264 | -5.71083 | 17525 ft | 384 kts | 104° |
| 2026-05-07 18:04 | 53.46704 | -5.66678 | 18161 ft | 388 kts | 104° |
| 2026-05-07 18:05 | 53.46141 | -5.62276 | 18714 ft | 392 kts | 104° |
| 2026-05-07 18:05 | 53.45567 | -5.57796 | 19271 ft | 394 kts | 105° |
| 2026-05-07 18:05 | 53.44987 | -5.53282 | 19821 ft | 397 kts | 105° |
| 2026-05-07 18:05 | 53.44512 | -5.48679 | 20192 ft | 408 kts | 96° |
| 2026-05-07 18:06 | 53.44412 | -5.43841 | 20417 ft | 420 kts | 94° |
| 2026-05-07 18:06 | 53.44297 | -5.38929 | 20919 ft | 423 kts | 95° |
| 2026-05-07 18:06 | 53.44176 | -5.33990 | 21420 ft | 426 kts | 95° |
| 2026-05-07 18:06 | 53.44050 | -5.28991 | 21925 ft | 429 kts | 95° |
| 2026-05-07 18:07 | 53.43921 | -5.23965 | 22428 ft | 432 kts | 95° |
| 2026-05-07 18:07 | 53.43790 | -5.18910 | 22919 ft | 435 kts | 95° |
| 2026-05-07 18:07 | 53.43640 | -5.13885 | 23405 ft | 438 kts | 95° |
| 2026-05-07 18:07 | 53.43481 | -5.08760 | 23833 ft | 441 kts | 95° |
| 2026-05-07 18:08 | 53.43320 | -5.03608 | 24241 ft | 443 kts | 95° |
| 2026-05-07 18:08 | 53.43157 | -4.98427 | 24654 ft | 445 kts | 95° |
| 2026-05-07 18:08 | 53.42991 | -4.93228 | 25063 ft | 448 kts | 95° |
| 2026-05-07 18:08 | 53.42822 | -4.88000 | 25455 ft | 450 kts | 95° |
| 2026-05-07 18:09 | 53.42650 | -4.82750 | 25846 ft | 452 kts | 95° |
| 2026-05-07 18:09 | 53.42474 | -4.77458 | 26227 ft | 454 kts | 96° |
| 2026-05-07 18:09 | 53.42298 | -4.72220 | 26601 ft | 457 kts | 96° |
| 2026-05-07 18:09 | 53.42116 | -4.66882 | 26985 ft | 459 kts | 96° |
| 2026-05-07 18:10 | 53.41931 | -4.61529 | 27333 ft | 461 kts | 95° |
| 2026-05-07 18:10 | 53.41743 | -4.56150 | 27708 ft | 463 kts | 95° |
| 2026-05-07 18:10 | 53.41551 | -4.50756 | 28066 ft | 465 kts | 95° |
| 2026-05-07 18:10 | 53.41356 | -4.45336 | 28418 ft | 467 kts | 96° |
| 2026-05-07 18:11 | 53.41158 | -4.39893 | 28754 ft | 469 kts | 96° |
| 2026-05-07 18:11 | 53.41023 | -4.36197 | 28977 ft | 471 kts | 96° |
| 2026-05-07 18:11 | 53.40752 | -4.28931 | 29415 ft | 473 kts | 96° |
| 2026-05-07 18:11 | 53.40544 | -4.23407 | 29729 ft | 475 kts | 96° |
| 2026-05-07 18:12 | 53.40332 | -4.17863 | 30055 ft | 477 kts | 96° |
| 2026-05-07 18:12 | 53.40117 | -4.12325 | 30419 ft | 476 kts | 96° |
| 2026-05-07 18:12 | 53.39900 | -4.06785 | 30815 ft | 474 kts | 96° |
| 2026-05-07 18:12 | 53.39684 | -4.01285 | 31231 ft | 473 kts | 96° |
| 2026-05-07 18:13 | 53.39463 | -3.95792 | 31586 ft | 472 kts | 96° |
| 2026-05-07 18:13 | 53.39243 | -3.90376 | 31944 ft | 471 kts | 96° |
| 2026-05-07 18:13 | 53.39018 | -3.84902 | 32299 ft | 471 kts | 96° |
| 2026-05-07 18:13 | 53.38791 | -3.79435 | 32655 ft | 470 kts | 96° |
| 2026-05-07 18:14 | 53.38562 | -3.73977 | 32959 ft | 470 kts | 96° |
| 2026-05-07 18:14 | 53.38000 | -3.64865 | 32952 ft | 464 kts | 108° |
| 2026-05-07 18:15 | 53.35673 | -3.54960 | 32965 ft | 461 kts | 115° |
| 2026-05-07 18:15 | 53.32985 | -3.45340 | 32953 ft | 453 kts | 129° |
| 2026-05-07 18:16 | 53.28930 | -3.37303 | 32974 ft | 453 kts | 133° |
| 2026-05-07 18:16 | 53.24800 | -3.29383 | 33017 ft | 453 kts | 134° |
| 2026-05-07 18:17 | 53.20635 | -3.21513 | 33012 ft | 452 kts | 134° |
| 2026-05-07 18:17 | 53.16456 | -3.13649 | 33023 ft | 455 kts | 134° |
| 2026-05-07 18:18 | 53.12247 | -3.05755 | 33016 ft | 455 kts | 134° |
| 2026-05-07 18:18 | 53.08048 | -2.97904 | 33018 ft | 453 kts | 134° |
| 2026-05-07 18:19 | 53.03857 | -2.90093 | 33016 ft | 453 kts | 134° |
| 2026-05-07 18:19 | 52.99683 | -2.82340 | 33014 ft | 453 kts | 134° |
| 2026-05-07 18:20 | 52.95479 | -2.74556 | 33007 ft | 455 kts | 134° |
| 2026-05-07 18:20 | 52.91223 | -2.66697 | 33017 ft | 458 kts | 134° |
| 2026-05-07 18:21 | 52.86956 | -2.58846 | 33020 ft | 458 kts | 134° |
| 2026-05-07 18:21 | 52.82682 | -2.51003 | 33012 ft | 458 kts | 134° |
| 2026-05-07 18:21 | 52.80414 | -2.47354 | 32997 ft | 453 kts | 146° |
| 2026-05-07 18:22 | 52.77802 | -2.44488 | 33029 ft | 452 kts | 148° |
| 2026-05-07 18:22 | 52.72600 | -2.38647 | 33009 ft | 451 kts | 148° |
| 2026-05-07 18:23 | 52.67338 | -2.32843 | 33009 ft | 456 kts | 148° |
| 2026-05-07 18:23 | 52.62064 | -2.27055 | 33012 ft | 455 kts | 148° |
| 2026-05-07 18:24 | 52.56832 | -2.21328 | 32749 ft | 450 kts | 148° |
| 2026-05-07 18:24 | 52.54230 | -2.18488 | 31895 ft | 452 kts | 149° |
| 2026-05-07 18:24 | 52.51592 | -2.15612 | 30928 ft | 457 kts | 148° |
| 2026-05-07 18:24 | 52.48932 | -2.12717 | 30101 ft | 459 kts | 149° |
| 2026-05-07 18:25 | 52.46268 | -2.09820 | 29206 ft | 459 kts | 149° |
| 2026-05-07 18:25 | 52.43602 | -2.06925 | 28335 ft | 459 kts | 149° |
| 2026-05-07 18:25 | 52.40934 | -2.04033 | 27538 ft | 458 kts | 149° |
| 2026-05-07 18:25 | 52.38283 | -2.01163 | 26880 ft | 455 kts | 149° |
| 2026-05-07 18:26 | 52.35645 | -1.98313 | 26161 ft | 453 kts | 149° |
| 2026-05-07 18:26 | 52.33062 | -1.95529 | 25529 ft | 449 kts | 149° |
| 2026-05-07 18:26 | 52.30460 | -1.92723 | 24894 ft | 446 kts | 149° |
| 2026-05-07 18:26 | 52.27878 | -1.89944 | 24289 ft | 443 kts | 149° |
| 2026-05-07 18:27 | 52.25308 | -1.87183 | 23572 ft | 442 kts | 149° |
| 2026-05-07 18:27 | 52.22739 | -1.84426 | 22865 ft | 440 kts | 149° |
| 2026-05-07 18:27 | 52.20201 | -1.81706 | 22282 ft | 434 kts | 149° |
| 2026-05-07 18:27 | 52.17687 | -1.79016 | 21689 ft | 430 kts | 149° |
| 2026-05-07 18:28 | 52.15194 | -1.76353 | 21089 ft | 426 kts | 149° |
| 2026-05-07 18:28 | 52.12721 | -1.73714 | 20493 ft | 423 kts | 149° |
| 2026-05-07 18:28 | 52.10270 | -1.71102 | 20006 ft | 417 kts | 149° |
| 2026-05-07 18:28 | 52.07841 | -1.68517 | 19591 ft | 417 kts | 149° |
| 2026-05-07 18:29 | 52.05410 | -1.65934 | 19219 ft | 416 kts | 149° |
| 2026-05-07 18:29 | 52.02990 | -1.63365 | 18841 ft | 414 kts | 149° |
| 2026-05-07 18:29 | 52.00617 | -1.60849 | 18482 ft | 412 kts | 149° |
| 2026-05-07 18:29 | 51.98220 | -1.58312 | 18105 ft | 410 kts | 149° |
| 2026-05-07 18:30 | 51.95809 | -1.55764 | 17719 ft | 408 kts | 149° |
| 2026-05-07 18:30 | 51.93439 | -1.53260 | 17369 ft | 405 kts | 149° |
| 2026-05-07 18:30 | 51.91112 | -1.50806 | 17032 ft | 403 kts | 149° |
| 2026-05-07 18:30 | 51.88771 | -1.48341 | 16691 ft | 401 kts | 149° |
| 2026-05-07 18:31 | 51.86438 | -1.45887 | 16343 ft | 398 kts | 149° |
| 2026-05-07 18:31 | 51.84126 | -1.43457 | 16003 ft | 396 kts | 149° |
| 2026-05-07 18:31 | 51.81823 | -1.41041 | 15671 ft | 393 kts | 149° |
| 2026-05-07 18:31 | 51.79531 | -1.38638 | 15318 ft | 391 kts | 149° |
| 2026-05-07 18:32 | 51.77251 | -1.36251 | 15031 ft | 390 kts | 149° |
| 2026-05-07 18:32 | 51.74981 | -1.33879 | 14845 ft | 389 kts | 149° |
| 2026-05-07 18:32 | 51.72713 | -1.31511 | 14710 ft | 388 kts | 149° |
| 2026-05-07 18:32 | 51.70450 | -1.29151 | 14566 ft | 387 kts | 149° |
| 2026-05-07 18:33 | 51.68193 | -1.26800 | 14412 ft | 386 kts | 149° |
| 2026-05-07 18:33 | 51.65935 | -1.24450 | 14270 ft | 385 kts | 149° |
| 2026-05-07 18:33 | 51.63689 | -1.22117 | 14123 ft | 384 kts | 149° |
| 2026-05-07 18:33 | 51.61444 | -1.19787 | 13981 ft | 383 kts | 149° |
| 2026-05-07 18:34 | 51.59211 | -1.17472 | 13826 ft | 382 kts | 149° |
| 2026-05-07 18:34 | 51.56979 | -1.15161 | 13666 ft | 381 kts | 149° |
| 2026-05-07 18:34 | 51.54754 | -1.12859 | 13517 ft | 380 kts | 149° |
| 2026-05-07 18:34 | 51.52528 | -1.10561 | 13364 ft | 380 kts | 149° |
| 2026-05-07 18:35 | 51.50305 | -1.08266 | 13234 ft | 379 kts | 149° |
| 2026-05-07 18:35 | 51.48088 | -1.05982 | 13087 ft | 379 kts | 149° |
| 2026-05-07 18:35 | 51.45867 | -1.03696 | 12946 ft | 378 kts | 149° |
| 2026-05-07 18:35 | 51.43685 | -1.01452 | 12807 ft | 377 kts | 149° |
| 2026-05-07 18:36 | 51.41473 | -0.99181 | 12663 ft | 376 kts | 149° |
| 2026-05-07 18:36 | 51.39267 | -0.96918 | 12524 ft | 376 kts | 149° |
| 2026-05-07 18:36 | 51.37067 | -0.94663 | 12377 ft | 375 kts | 149° |
| 2026-05-07 18:36 | 51.34871 | -0.92416 | 12238 ft | 375 kts | 149° |
| 2026-05-07 18:37 | 51.32681 | -0.90177 | 12104 ft | 367 kts | 149° |
| 2026-05-07 18:37 | 51.30596 | -0.88049 | 11976 ft | 344 kts | 149° |
| 2026-05-07 18:37 | 51.28627 | -0.86041 | 11865 ft | 327 kts | 149° |
| 2026-05-07 18:37 | 51.26757 | -0.84135 | 11736 ft | 312 kts | 149° |
| 2026-05-07 18:38 | 51.24967 | -0.82313 | 11608 ft | 297 kts | 149° |
| 2026-05-07 18:38 | 51.23263 | -0.80580 | 11500 ft | 284 kts | 150° |
| 2026-05-07 18:38 | 51.21603 | -0.78894 | 11406 ft | 283 kts | 150° |
| 2026-05-07 18:38 | 51.19947 | -0.77212 | 11293 ft | 283 kts | 150° |
| 2026-05-07 18:39 | 51.18310 | -0.75551 | 11175 ft | 283 kts | 150° |
| 2026-05-07 18:39 | 51.16644 | -0.73863 | 10860 ft | 284 kts | 150° |
| 2026-05-07 18:39 | 51.14972 | -0.72170 | 10489 ft | 286 kts | 150° |
| 2026-05-07 18:39 | 51.13291 | -0.70468 | 10124 ft | 287 kts | 150° |
| 2026-05-07 18:40 | 51.11599 | -0.68758 | 9738 ft | 288 kts | 150° |
| 2026-05-07 18:40 | 51.09904 | -0.67045 | 9336 ft | 289 kts | 149° |
| 2026-05-07 18:40 | 51.08201 | -0.65324 | 8937 ft | 290 kts | 149° |
| 2026-05-07 18:40 | 51.06498 | -0.63600 | 8547 ft | 290 kts | 147° |
| 2026-05-07 18:41 | 51.05097 | -0.61366 | 8143 ft | 284 kts | 121° |
| 2026-05-07 18:41 | 51.04248 | -0.58661 | 8138 ft | 267 kts | 118° |
| 2026-05-07 18:41 | 51.03422 | -0.56090 | 8065 ft | 263 kts | 118° |
| 2026-05-07 18:41 | 51.02598 | -0.53505 | 8061 ft | 262 kts | 117° |
| 2026-05-07 18:42 | 51.01851 | -0.50858 | 8031 ft | 262 kts | 104° |
| 2026-05-07 18:42 | 51.01646 | -0.48026 | 7866 ft | 257 kts | 91° |
| 2026-05-07 18:42 | 51.01620 | -0.45179 | 7526 ft | 259 kts | 91° |
| 2026-05-07 18:42 | 51.01603 | -0.42310 | 7168 ft | 260 kts | 91° |
| 2026-05-07 18:43 | 51.01581 | -0.39464 | 6785 ft | 256 kts | 91° |
| 2026-05-07 18:43 | 51.01553 | -0.36663 | 6407 ft | 251 kts | 91° |
| 2026-05-07 18:43 | 51.01391 | -0.33951 | 6001 ft | 246 kts | 108° |
| 2026-05-07 18:43 | 51.00507 | -0.31686 | 5605 ft | 241 kts | 138° |
| 2026-05-07 18:44 | 50.99064 | -0.30525 | 5399 ft | 228 kts | 169° |
| 2026-05-07 18:44 | 50.97564 | -0.30754 | 5219 ft | 213 kts | 202° |
| 2026-05-07 18:44 | 50.96458 | -0.32196 | 4916 ft | 206 kts | 238° |
| 2026-05-07 18:44 | 50.96098 | -0.34311 | 4609 ft | 202 kts | 275° |
| 2026-05-07 18:45 | 50.96588 | -0.36308 | 4359 ft | 192 kts | 313° |
| 2026-05-07 18:45 | 50.97555 | -0.37771 | 4241 ft | 194 kts | 323° |
| 2026-05-07 18:45 | 50.98642 | -0.39031 | 4138 ft | 193 kts | 330° |
| 2026-05-07 18:45 | 50.99784 | -0.40157 | 4002 ft | 194 kts | 331° |
| 2026-05-07 18:46 | 51.00933 | -0.41273 | 3841 ft | 193 kts | 332° |
| 2026-05-07 18:46 | 51.02081 | -0.42387 | 3654 ft | 193 kts | 331° |
| 2026-05-07 18:46 | 51.03224 | -0.43494 | 3475 ft | 192 kts | 331° |
| 2026-05-07 18:46 | 51.04365 | -0.44596 | 3283 ft | 192 kts | 331° |
| 2026-05-07 18:47 | 51.05502 | -0.45696 | 3129 ft | 191 kts | 332° |
| 2026-05-07 18:47 | 51.06680 | -0.46629 | 2999 ft | 187 kts | 353° |
| 2026-05-07 18:47 | 51.07913 | -0.46324 | 2942 ft | 180 kts | 33° |
| 2026-05-07 18:47 | 51.08921 | -0.45122 | 2978 ft | 184 kts | 41° |
| 2026-05-07 18:48 | 51.09909 | -0.43861 | 2998 ft | 185 kts | 41° |
| 2026-05-07 18:48 | 51.10913 | -0.42582 | 2976 ft | 185 kts | 44° |
| 2026-05-07 18:48 | 51.11619 | -0.40971 | 2754 ft | 177 kts | 69° |
| 2026-05-07 18:48 | 51.12009 | -0.39171 | 2547 ft | 170 kts | 78° |
| 2026-05-07 18:49 | 51.12275 | -0.37400 | 2353 ft | 162 kts | 80° |
| 2026-05-07 18:49 | 51.12520 | -0.35655 | 2148 ft | 161 kts | 81° |
| 2026-05-07 18:49 | 51.12762 | -0.33911 | 1931 ft | 161 kts | 81° |
| 2026-05-07 18:49 | 51.13001 | -0.32157 | 1755 ft | 162 kts | 80° |
| 2026-05-07 18:50 | 51.13235 | -0.30399 | 1500 ft | 163 kts | 79° |
| 2026-05-07 18:50 | 51.13480 | -0.28651 | 1290 ft | 161 kts | 79° |
| 2026-05-07 18:50 | 51.13710 | -0.26981 | 1127 ft | 150 kts | 80° |
| 2026-05-07 18:50 | 51.13931 | -0.25385 | 924 ft | 145 kts | 79° |
| 2026-05-07 18:51 | 51.14147 | -0.23836 | 714 ft | 142 kts | 79° |
| 2026-05-07 18:51 | 51.14360 | -0.22325 | 471 ft | 141 kts | 78° |
| 2026-05-07 18:51 | 51.14570 | -0.20822 | 257 ft | 138 kts | 78° |
| 2026-05-07 18:51 | 51.14759 | -0.19440 | 217 ft | 110 kts | 78° |
| 2026-05-07 18:52 | 51.14888 | -0.18511 | 213 ft | 65 kts | 77° |
| 2026-05-07 18:52 | 51.14958 | -0.18049 | 213 ft | 33 kts | 66° |
| 2026-05-07 18:52 | 51.15053 | -0.17810 | 217 ft | 10 kts | 52° |
| 2026-05-07 18:52 | 51.15114 | -0.17769 | 217 ft | 10 kts | 9° |
| 2026-05-07 18:53 | 51.15172 | -0.17734 | 209 ft | 8 kts | 48° |
| 2026-05-07 18:53 | 51.15188 | -0.17659 | 217 ft | 7 kts | 77° |
| 2026-05-07 18:53 | 51.15198 | -0.17587 | 208 ft | 6 kts | 77° |
| 2026-05-07 18:53 | 51.15206 | -0.17535 | 212 ft | 4 kts | 76° |
| 2026-05-07 18:54 | 51.15211 | -0.17502 | 208 ft | 2 kts | 77° |
| 2026-05-07 18:54 | 51.15213 | -0.17489 | 215 ft | 0 kts | 77° |
| 2026-05-07 18:54 | 51.15215 | -0.17477 | 212 ft | 4 kts | 77° |
| 2026-05-07 18:54 | 51.15226 | -0.17396 | 210 ft | 12 kts | 79° |
| 2026-05-07 18:55 | 51.15247 | -0.17229 | 213 ft | 18 kts | 78° |
| 2026-05-07 18:55 | 51.15277 | -0.17020 | 210 ft | 21 kts | 78° |
| 2026-05-07 18:55 | 51.15308 | -0.16795 | 210 ft | 20 kts | 77° |
| 2026-05-07 18:55 | 51.15346 | -0.16645 | 213 ft | 14 kts | 72° |
| 2026-05-07 18:56 | 51.15365 | -0.16541 | 216 ft | 9 kts | 75° |
| 2026-05-07 18:56 | 51.15373 | -0.16513 | 208 ft | 2 kts | 41° |
| 2026-05-07 18:56 | 51.15397 | -0.16456 | 217 ft | 6 kts | 73° |
| 2026-05-07 18:56 | 51.15401 | -0.16428 | 212 ft | 1 kts | 76° |
| 2026-05-07 18:57 | 51.15403 | -0.16418 | 216 ft | 0 kts | 76° |
| 2026-05-07 19:08 | 51.15403 | -0.16421 | 216 ft | 0 kts | 78° |